sensor_id;sensor_type;location;lat;lon;timestamp;P1;durP1;ratioP1;P2;durP2;ratioP2
27612;SDS011;15036;48.094;-1.690;2022-12-07T00:01:32;25.98;;;16.75;;
27612;SDS011;15036;48.094;-1.690;2022-12-07T00:04:00;25.65;;;16.33;;
27612;SDS011;15036;48.094;-1.690;2022-12-07T00:06:30;27.05;;;16.80;;
27612;SDS011;15036;48.094;-1.690;2022-12-07T00:08:56;27.48;;;17.05;;
27612;SDS011;15036;48.094;-1.690;2022-12-07T00:11:22;26.50;;;17.60;;
27612;SDS011;15036;48.094;-1.690;2022-12-07T00:13:55;26.55;;;16.58;;
27612;SDS011;15036;48.094;-1.690;2022-12-07T00:16:24;28.42;;;16.90;;
27612;SDS011;15036;48.094;-1.690;2022-12-07T00:18:51;26.25;;;16.13;;
27612;SDS011;15036;48.094;-1.690;2022-12-07T00:21:24;27.73;;;17.00;;
27612;SDS011;15036;48.094;-1.690;2022-12-07T00:23:52;27.20;;;16.55;;
27612;SDS011;15036;48.094;-1.690;2022-12-07T00:26:20;24.98;;;16.38;;
27612;SDS011;15036;48.094;-1.690;2022-12-07T00:28:48;28.42;;;17.63;;
27612;SDS011;15036;48.094;-1.690;2022-12-07T00:31:17;27.17;;;17.33;;
27612;SDS011;15036;48.094;-1.690;2022-12-07T00:33:44;26.63;;;16.20;;
27612;SDS011;15036;48.094;-1.690;2022-12-07T00:36:11;26.50;;;17.15;;
27612;SDS011;15036;48.094;-1.690;2022-12-07T00:38:38;28.58;;;17.02;;
27612;SDS011;15036;48.094;-1.690;2022-12-07T00:41:05;26.02;;;16.25;;
27612;SDS011;15036;48.094;-1.690;2022-12-07T00:43:35;28.15;;;17.77;;
27612;SDS011;15036;48.094;-1.690;2022-12-07T00:46:01;30.05;;;17.73;;
27612;SDS011;15036;48.094;-1.690;2022-12-07T00:48:26;29.50;;;17.63;;
27612;SDS011;15036;48.094;-1.690;2022-12-07T00:50:52;27.52;;;17.63;;
27612;SDS011;15036;48.094;-1.690;2022-12-07T00:53:19;29.42;;;17.25;;
27612;SDS011;15036;48.094;-1.690;2022-12-07T00:55:44;26.90;;;17.10;;
27612;SDS011;15036;48.094;-1.690;2022-12-07T00:58:10;31.85;;;17.42;;
27612;SDS011;15036;48.094;-1.690;2022-12-07T01:00:36;27.02;;;16.88;;
27612;SDS011;15036;48.094;-1.690;2022-12-07T01:03:04;26.60;;;17.27;;
27612;SDS011;15036;48.094;-1.690;2022-12-07T01:05:30;28.35;;;16.80;;
27612;SDS011;15036;48.094;-1.690;2022-12-07T01:07:55;29.02;;;16.60;;
27612;SDS011;15036;48.094;-1.690;2022-12-07T01:10:20;28.63;;;17.08;;
27612;SDS011;15036;48.094;-1.690;2022-12-07T01:12:46;30.73;;;18.42;;
27612;SDS011;15036;48.094;-1.690;2022-12-07T01:15:11;31.33;;;18.95;;
27612;SDS011;15036;48.094;-1.690;2022-12-07T01:17:37;29.73;;;17.42;;
27612;SDS011;15036;48.094;-1.690;2022-12-07T01:20:02;29.30;;;18.13;;
27612;SDS011;15036;48.094;-1.690;2022-12-07T01:22:28;33.13;;;20.25;;
27612;SDS011;15036;48.094;-1.690;2022-12-07T01:24:53;31.90;;;18.88;;
27612;SDS011;15036;48.094;-1.690;2022-12-07T01:27:19;30.98;;;17.98;;
27612;SDS011;15036;48.094;-1.690;2022-12-07T01:29:44;30.15;;;17.20;;
27612;SDS011;15036;48.094;-1.690;2022-12-07T01:32:10;32.05;;;18.17;;
27612;SDS011;15036;48.094;-1.690;2022-12-07T01:34:35;32.20;;;17.58;;
27612;SDS011;15036;48.094;-1.690;2022-12-07T01:37:01;29.70;;;18.27;;
27612;SDS011;15036;48.094;-1.690;2022-12-07T01:39:26;29.13;;;17.90;;
27612;SDS011;15036;48.094;-1.690;2022-12-07T01:41:52;28.25;;;17.35;;
27612;SDS011;15036;48.094;-1.690;2022-12-07T01:51:48;28.25;;;16.52;;
27612;SDS011;15036;48.094;-1.690;2022-12-07T01:54:16;31.17;;;17.05;;
27612;SDS011;15036;48.094;-1.690;2022-12-07T01:56:42;29.90;;;16.55;;
27612;SDS011;15036;48.094;-1.690;2022-12-07T01:59:14;29.42;;;17.35;;
27612;SDS011;15036;48.094;-1.690;2022-12-07T02:01:41;29.10;;;17.75;;
27612;SDS011;15036;48.094;-1.690;2022-12-07T02:04:06;30.65;;;18.20;;
27612;SDS011;15036;48.094;-1.690;2022-12-07T02:06:32;29.80;;;17.63;;
27612;SDS011;15036;48.094;-1.690;2022-12-07T02:09:00;31.30;;;18.63;;
27612;SDS011;15036;48.094;-1.690;2022-12-07T02:11:25;29.83;;;18.10;;
27612;SDS011;15036;48.094;-1.690;2022-12-07T02:13:51;34.60;;;19.58;;
27612;SDS011;15036;48.094;-1.690;2022-12-07T02:16:32;31.05;;;18.38;;
27612;SDS011;15036;48.094;-1.690;2022-12-07T02:22:24;34.85;;;18.48;;
27612;SDS011;15036;48.094;-1.690;2022-12-07T02:28:27;31.88;;;18.90;;
27612;SDS011;15036;48.094;-1.690;2022-12-07T02:30:58;31.70;;;18.38;;
27612;SDS011;15036;48.094;-1.690;2022-12-07T02:33:34;34.88;;;18.75;;
27612;SDS011;15036;48.094;-1.690;2022-12-07T02:36:06;33.97;;;19.02;;
27612;SDS011;15036;48.094;-1.690;2022-12-07T02:38:38;33.70;;;18.77;;
27612;SDS011;15036;48.094;-1.690;2022-12-07T02:41:16;34.17;;;18.95;;
27612;SDS011;15036;48.094;-1.690;2022-12-07T02:43:53;35.78;;;18.23;;
27612;SDS011;15036;48.094;-1.690;2022-12-07T02:46:23;35.97;;;18.70;;
27612;SDS011;15036;48.094;-1.690;2022-12-07T02:48:53;34.05;;;19.23;;
27612;SDS011;15036;48.094;-1.690;2022-12-07T02:51:21;29.13;;;18.23;;
27612;SDS011;15036;48.094;-1.690;2022-12-07T02:53:47;34.60;;;19.83;;
27612;SDS011;15036;48.094;-1.690;2022-12-07T03:13:07;34.50;;;18.52;;
27612;SDS011;15036;48.094;-1.690;2022-12-07T03:15:42;33.60;;;18.48;;
27612;SDS011;15036;48.094;-1.690;2022-12-07T03:18:16;32.35;;;18.15;;
27612;SDS011;15036;48.094;-1.690;2022-12-07T03:20:46;33.30;;;17.42;;
27612;SDS011;15036;48.094;-1.690;2022-12-07T03:23:16;30.13;;;17.70;;
27612;SDS011;15036;48.094;-1.690;2022-12-07T03:25:45;30.58;;;17.38;;
27612;SDS011;15036;48.094;-1.690;2022-12-07T03:28:14;30.38;;;17.83;;
27612;SDS011;15036;48.094;-1.690;2022-12-07T03:30:47;31.58;;;18.08;;
27612;SDS011;15036;48.094;-1.690;2022-12-07T03:33:43;31.60;;;17.98;;
27612;SDS011;15036;48.094;-1.690;2022-12-07T03:36:36;31.20;;;17.42;;
27612;SDS011;15036;48.094;-1.690;2022-12-07T03:41:49;29.92;;;17.30;;
27612;SDS011;15036;48.094;-1.690;2022-12-07T03:44:16;29.38;;;18.05;;
27612;SDS011;15036;48.094;-1.690;2022-12-07T03:47:01;31.67;;;18.48;;
27612;SDS011;15036;48.094;-1.690;2022-12-07T03:49:43;30.35;;;17.95;;
27612;SDS011;15036;48.094;-1.690;2022-12-07T03:54:59;30.77;;;18.02;;
27612;SDS011;15036;48.094;-1.690;2022-12-07T03:57:30;29.20;;;17.23;;
27612;SDS011;15036;48.094;-1.690;2022-12-07T03:59:58;29.63;;;17.98;;
27612;SDS011;15036;48.094;-1.690;2022-12-07T04:02:25;30.88;;;17.70;;
27612;SDS011;15036;48.094;-1.690;2022-12-07T04:04:52;29.25;;;17.08;;
27612;SDS011;15036;48.094;-1.690;2022-12-07T04:07:18;29.67;;;16.33;;
27612;SDS011;15036;48.094;-1.690;2022-12-07T04:09:44;27.60;;;16.20;;
27612;SDS011;15036;48.094;-1.690;2022-12-07T04:12:10;27.33;;;16.58;;
27612;SDS011;15036;48.094;-1.690;2022-12-07T04:14:35;29.02;;;17.20;;
27612;SDS011;15036;48.094;-1.690;2022-12-07T04:17:00;30.73;;;17.98;;
27612;SDS011;15036;48.094;-1.690;2022-12-07T04:19:27;31.45;;;16.65;;
27612;SDS011;15036;48.094;-1.690;2022-12-07T04:21:54;31.33;;;18.27;;
27612;SDS011;15036;48.094;-1.690;2022-12-07T04:24:21;30.63;;;17.60;;
27612;SDS011;15036;48.094;-1.690;2022-12-07T04:26:46;28.15;;;16.90;;
27612;SDS011;15036;48.094;-1.690;2022-12-07T04:29:13;30.33;;;18.25;;
27612;SDS011;15036;48.094;-1.690;2022-12-07T04:31:39;28.40;;;16.95;;
27612;SDS011;15036;48.094;-1.690;2022-12-07T04:34:05;29.83;;;17.13;;
27612;SDS011;15036;48.094;-1.690;2022-12-07T04:36:31;28.77;;;17.38;;
27612;SDS011;15036;48.094;-1.690;2022-12-07T04:38:57;29.00;;;17.35;;
27612;SDS011;15036;48.094;-1.690;2022-12-07T04:41:23;30.95;;;17.92;;
27612;SDS011;15036;48.094;-1.690;2022-12-07T04:43:55;28.90;;;17.02;;
27612;SDS011;15036;48.094;-1.690;2022-12-07T04:46:23;33.63;;;18.10;;
27612;SDS011;15036;48.094;-1.690;2022-12-07T04:48:49;28.70;;;16.58;;
27612;SDS011;15036;48.094;-1.690;2022-12-07T04:51:15;31.05;;;18.23;;
27612;SDS011;15036;48.094;-1.690;2022-12-07T04:53:45;28.25;;;16.77;;
27612;SDS011;15036;48.094;-1.690;2022-12-07T04:56:10;28.17;;;16.42;;
27612;SDS011;15036;48.094;-1.690;2022-12-07T04:58:35;30.10;;;17.70;;
27612;SDS011;15036;48.094;-1.690;2022-12-07T05:01:01;29.80;;;16.70;;
27612;SDS011;15036;48.094;-1.690;2022-12-07T05:03:26;29.98;;;16.73;;
27612;SDS011;15036;48.094;-1.690;2022-12-07T05:05:51;29.77;;;16.98;;
27612;SDS011;15036;48.094;-1.690;2022-12-07T05:08:17;30.73;;;17.17;;
27612;SDS011;15036;48.094;-1.690;2022-12-07T05:10:42;28.08;;;16.00;;
27612;SDS011;15036;48.094;-1.690;2022-12-07T05:13:08;28.08;;;16.55;;
27612;SDS011;15036;48.094;-1.690;2022-12-07T05:15:33;28.92;;;16.75;;
27612;SDS011;15036;48.094;-1.690;2022-12-07T05:17:58;29.55;;;17.42;;
27612;SDS011;15036;48.094;-1.690;2022-12-07T05:20:24;25.00;;;15.57;;
27612;SDS011;15036;48.094;-1.690;2022-12-07T05:22:49;26.17;;;15.68;;
27612;SDS011;15036;48.094;-1.690;2022-12-07T05:25:15;28.42;;;16.38;;
27612;SDS011;15036;48.094;-1.690;2022-12-07T05:27:40;26.02;;;15.30;;
27612;SDS011;15036;48.094;-1.690;2022-12-07T05:30:06;27.30;;;15.85;;
27612;SDS011;15036;48.094;-1.690;2022-12-07T05:32:32;25.70;;;15.68;;
27612;SDS011;15036;48.094;-1.690;2022-12-07T05:34:57;25.45;;;14.82;;
27612;SDS011;15036;48.094;-1.690;2022-12-07T05:37:22;26.55;;;15.60;;
27612;SDS011;15036;48.094;-1.690;2022-12-07T05:39:48;26.80;;;16.23;;
27612;SDS011;15036;48.094;-1.690;2022-12-07T05:42:13;27.00;;;16.10;;
27612;SDS011;15036;48.094;-1.690;2022-12-07T05:44:40;28.88;;;16.10;;
27612;SDS011;15036;48.094;-1.690;2022-12-07T05:47:06;30.00;;;16.80;;
27612;SDS011;15036;48.094;-1.690;2022-12-07T05:49:32;26.27;;;16.02;;
27612;SDS011;15036;48.094;-1.690;2022-12-07T05:51:57;26.65;;;15.70;;
27612;SDS011;15036;48.094;-1.690;2022-12-07T05:54:23;26.50;;;15.95;;
27612;SDS011;15036;48.094;-1.690;2022-12-07T05:56:48;27.63;;;15.70;;
27612;SDS011;15036;48.094;-1.690;2022-12-07T05:59:14;27.83;;;15.95;;
27612;SDS011;15036;48.094;-1.690;2022-12-07T06:01:49;30.42;;;17.35;;
27612;SDS011;15036;48.094;-1.690;2022-12-07T06:04:15;27.88;;;17.10;;
27612;SDS011;15036;48.094;-1.690;2022-12-07T06:06:41;29.45;;;16.77;;
27612;SDS011;15036;48.094;-1.690;2022-12-07T06:09:06;23.42;;;15.45;;
27612;SDS011;15036;48.094;-1.690;2022-12-07T06:11:32;24.75;;;14.93;;
27612;SDS011;15036;48.094;-1.690;2022-12-07T06:14:16;23.55;;;14.52;;
27612;SDS011;15036;48.094;-1.690;2022-12-07T06:16:41;26.60;;;14.43;;
27612;SDS011;15036;48.094;-1.690;2022-12-07T06:19:07;27.70;;;15.65;;
27612;SDS011;15036;48.094;-1.690;2022-12-07T06:21:32;24.60;;;15.45;;
27612;SDS011;15036;48.094;-1.690;2022-12-07T06:23:58;25.52;;;14.82;;
27612;SDS011;15036;48.094;-1.690;2022-12-07T06:26:23;26.75;;;16.10;;
27612;SDS011;15036;48.094;-1.690;2022-12-07T06:28:49;27.70;;;16.33;;
27612;SDS011;15036;48.094;-1.690;2022-12-07T06:31:14;27.10;;;15.95;;
27612;SDS011;15036;48.094;-1.690;2022-12-07T06:33:40;27.27;;;16.52;;
27612;SDS011;15036;48.094;-1.690;2022-12-07T06:36:06;27.55;;;16.27;;
27612;SDS011;15036;48.094;-1.690;2022-12-07T06:38:32;25.65;;;15.50;;
27612;SDS011;15036;48.094;-1.690;2022-12-07T06:40:58;25.45;;;14.60;;
27612;SDS011;15036;48.094;-1.690;2022-12-07T06:43:23;24.17;;;14.77;;
27612;SDS011;15036;48.094;-1.690;2022-12-07T06:45:48;26.65;;;15.32;;
27612;SDS011;15036;48.094;-1.690;2022-12-07T06:48:14;25.60;;;15.20;;
27612;SDS011;15036;48.094;-1.690;2022-12-07T06:50:39;28.42;;;16.80;;
27612;SDS011;15036;48.094;-1.690;2022-12-07T06:53:05;28.60;;;15.93;;
27612;SDS011;15036;48.094;-1.690;2022-12-07T06:55:30;26.15;;;16.30;;
27612;SDS011;15036;48.094;-1.690;2022-12-07T06:57:55;26.63;;;16.15;;
27612;SDS011;15036;48.094;-1.690;2022-12-07T07:00:21;29.67;;;17.63;;
27612;SDS011;15036;48.094;-1.690;2022-12-07T07:02:47;24.63;;;15.45;;
27612;SDS011;15036;48.094;-1.690;2022-12-07T07:05:12;27.52;;;15.98;;
27612;SDS011;15036;48.094;-1.690;2022-12-07T07:07:37;28.23;;;15.55;;
27612;SDS011;15036;48.094;-1.690;2022-12-07T07:10:03;26.60;;;14.63;;
27612;SDS011;15036;48.094;-1.690;2022-12-07T07:12:29;26.38;;;15.32;;
27612;SDS011;15036;48.094;-1.690;2022-12-07T07:14:54;23.88;;;14.45;;
27612;SDS011;15036;48.094;-1.690;2022-12-07T07:17:19;27.55;;;15.63;;
27612;SDS011;15036;48.094;-1.690;2022-12-07T07:19:45;24.13;;;14.27;;
27612;SDS011;15036;48.094;-1.690;2022-12-07T07:22:10;25.30;;;14.68;;
27612;SDS011;15036;48.094;-1.690;2022-12-07T07:24:36;27.55;;;15.15;;
27612;SDS011;15036;48.094;-1.690;2022-12-07T07:27:01;25.85;;;16.02;;
27612;SDS011;15036;48.094;-1.690;2022-12-07T07:29:26;25.70;;;15.20;;
27612;SDS011;15036;48.094;-1.690;2022-12-07T07:31:52;27.13;;;13.98;;
27612;SDS011;15036;48.094;-1.690;2022-12-07T07:34:17;25.40;;;14.27;;
27612;SDS011;15036;48.094;-1.690;2022-12-07T07:36:42;22.88;;;14.05;;
27612;SDS011;15036;48.094;-1.690;2022-12-07T07:39:09;23.67;;;13.80;;
27612;SDS011;15036;48.094;-1.690;2022-12-07T07:41:35;23.35;;;13.10;;
27612;SDS011;15036;48.094;-1.690;2022-12-07T07:44:00;24.42;;;14.13;;
27612;SDS011;15036;48.094;-1.690;2022-12-07T07:46:26;22.27;;;13.50;;
27612;SDS011;15036;48.094;-1.690;2022-12-07T07:48:51;23.85;;;13.38;;
27612;SDS011;15036;48.094;-1.690;2022-12-07T07:51:17;20.77;;;13.02;;
27612;SDS011;15036;48.094;-1.690;2022-12-07T07:53:42;23.63;;;13.80;;
27612;SDS011;15036;48.094;-1.690;2022-12-07T07:56:07;21.95;;;13.35;;
27612;SDS011;15036;48.094;-1.690;2022-12-07T07:58:33;22.80;;;13.63;;
27612;SDS011;15036;48.094;-1.690;2022-12-07T08:01:07;21.25;;;12.52;;
27612;SDS011;15036;48.094;-1.690;2022-12-07T08:03:33;22.65;;;13.70;;
27612;SDS011;15036;48.094;-1.690;2022-12-07T08:05:59;24.25;;;14.02;;
27612;SDS011;15036;48.094;-1.690;2022-12-07T08:08:24;22.52;;;13.85;;
27612;SDS011;15036;48.094;-1.690;2022-12-07T08:10:49;22.67;;;13.80;;
27612;SDS011;15036;48.094;-1.690;2022-12-07T08:13:15;24.38;;;14.18;;
27612;SDS011;15036;48.094;-1.690;2022-12-07T08:15:47;26.08;;;14.05;;
27612;SDS011;15036;48.094;-1.690;2022-12-07T08:18:13;26.10;;;14.48;;
27612;SDS011;15036;48.094;-1.690;2022-12-07T08:20:40;23.92;;;14.13;;
27612;SDS011;15036;48.094;-1.690;2022-12-07T08:23:06;26.40;;;16.05;;
27612;SDS011;15036;48.094;-1.690;2022-12-07T08:25:33;26.55;;;14.10;;
27612;SDS011;15036;48.094;-1.690;2022-12-07T08:28:00;24.40;;;14.68;;
27612;SDS011;15036;48.094;-1.690;2022-12-07T08:30:26;23.02;;;13.88;;
27612;SDS011;15036;48.094;-1.690;2022-12-07T08:32:52;19.33;;;13.10;;
27612;SDS011;15036;48.094;-1.690;2022-12-07T08:35:18;21.60;;;12.85;;
27612;SDS011;15036;48.094;-1.690;2022-12-07T08:37:43;20.92;;;13.20;;
27612;SDS011;15036;48.094;-1.690;2022-12-07T08:40:10;21.98;;;13.75;;
27612;SDS011;15036;48.094;-1.690;2022-12-07T08:42:40;24.17;;;13.85;;
27612;SDS011;15036;48.094;-1.690;2022-12-07T08:45:07;21.90;;;14.30;;
27612;SDS011;15036;48.094;-1.690;2022-12-07T08:47:36;22.23;;;13.55;;
27612;SDS011;15036;48.094;-1.690;2022-12-07T08:50:04;20.27;;;13.43;;
27612;SDS011;15036;48.094;-1.690;2022-12-07T08:52:32;23.20;;;13.60;;
27612;SDS011;15036;48.094;-1.690;2022-12-07T08:54:59;22.88;;;13.50;;
27612;SDS011;15036;48.094;-1.690;2022-12-07T08:57:26;20.42;;;14.20;;
27612;SDS011;15036;48.094;-1.690;2022-12-07T08:59:53;22.48;;;14.10;;
27612;SDS011;15036;48.094;-1.690;2022-12-07T09:02:18;22.63;;;13.48;;
27612;SDS011;15036;48.094;-1.690;2022-12-07T09:04:44;23.25;;;14.02;;
27612;SDS011;15036;48.094;-1.690;2022-12-07T09:07:09;24.90;;;14.55;;
27612;SDS011;15036;48.094;-1.690;2022-12-07T09:09:35;24.95;;;14.63;;
27612;SDS011;15036;48.094;-1.690;2022-12-07T09:12:00;25.92;;;14.52;;
27612;SDS011;15036;48.094;-1.690;2022-12-07T09:14:26;20.23;;;12.93;;
27612;SDS011;15036;48.094;-1.690;2022-12-07T09:16:51;22.25;;;14.02;;
27612;SDS011;15036;48.094;-1.690;2022-12-07T09:19:16;22.95;;;14.93;;
27612;SDS011;15036;48.094;-1.690;2022-12-07T09:21:42;23.88;;;15.55;;
27612;SDS011;15036;48.094;-1.690;2022-12-07T09:24:07;25.75;;;15.50;;
27612;SDS011;15036;48.094;-1.690;2022-12-07T09:26:34;23.48;;;14.88;;
27612;SDS011;15036;48.094;-1.690;2022-12-07T09:29:00;24.13;;;14.60;;
27612;SDS011;15036;48.094;-1.690;2022-12-07T09:31:26;22.35;;;14.27;;
27612;SDS011;15036;48.094;-1.690;2022-12-07T09:33:58;22.13;;;13.40;;
27612;SDS011;15036;48.094;-1.690;2022-12-07T09:36:25;22.65;;;13.95;;
27612;SDS011;15036;48.094;-1.690;2022-12-07T09:38:52;22.73;;;13.80;;
27612;SDS011;15036;48.094;-1.690;2022-12-07T09:41:17;21.65;;;14.00;;
27612;SDS011;15036;48.094;-1.690;2022-12-07T09:43:43;21.95;;;13.25;;
27612;SDS011;15036;48.094;-1.690;2022-12-07T09:46:13;23.83;;;14.50;;
27612;SDS011;15036;48.094;-1.690;2022-12-07T09:48:41;21.83;;;14.65;;
27612;SDS011;15036;48.094;-1.690;2022-12-07T09:51:41;20.75;;;13.93;;
27612;SDS011;15036;48.094;-1.690;2022-12-07T09:53:59;23.42;;;14.48;;
27612;SDS011;15036;48.094;-1.690;2022-12-07T09:56:28;21.83;;;13.88;;
27612;SDS011;15036;48.094;-1.690;2022-12-07T09:58:59;21.02;;;13.75;;
27612;SDS011;15036;48.094;-1.690;2022-12-07T10:01:28;22.48;;;13.60;;
27612;SDS011;15036;48.094;-1.690;2022-12-07T10:04:19;21.38;;;13.43;;
27612;SDS011;15036;48.094;-1.690;2022-12-07T10:06:45;24.98;;;13.55;;
27612;SDS011;15036;48.094;-1.690;2022-12-07T10:09:13;24.60;;;14.27;;
27612;SDS011;15036;48.094;-1.690;2022-12-07T10:11:58;17.70;;;10.10;;
27612;SDS011;15036;48.094;-1.690;2022-12-07T10:14:27;21.58;;;14.30;;
27612;SDS011;15036;48.094;-1.690;2022-12-07T10:16:54;22.60;;;14.35;;
27612;SDS011;15036;48.094;-1.690;2022-12-07T10:19:28;23.30;;;12.85;;
27612;SDS011;15036;48.094;-1.690;2022-12-07T10:22:15;22.83;;;13.45;;
27612;SDS011;15036;48.094;-1.690;2022-12-07T10:24:42;21.55;;;13.55;;
27612;SDS011;15036;48.094;-1.690;2022-12-07T10:27:29;24.55;;;14.95;;
27612;SDS011;15036;48.094;-1.690;2022-12-07T10:29:56;26.02;;;15.32;;
27612;SDS011;15036;48.094;-1.690;2022-12-07T10:37:45;23.02;;;13.98;;
27612;SDS011;15036;48.094;-1.690;2022-12-07T10:43:02;26.98;;;16.95;;
27612;SDS011;15036;48.094;-1.690;2022-12-07T10:45:28;20.27;;;13.95;;
27612;SDS011;15036;48.094;-1.690;2022-12-07T10:48:13;24.08;;;14.70;;
27612;SDS011;15036;48.094;-1.690;2022-12-07T10:55:55;20.90;;;13.45;;
27612;SDS011;15036;48.094;-1.690;2022-12-07T11:01:33;20.85;;;13.77;;
27612;SDS011;15036;48.094;-1.690;2022-12-07T11:04:28;18.88;;;12.98;;
27612;SDS011;15036;48.094;-1.690;2022-12-07T11:10:18;21.10;;;13.35;;
27612;SDS011;15036;48.094;-1.690;2022-12-07T11:15:52;20.83;;;13.68;;
27612;SDS011;15036;48.094;-1.690;2022-12-07T11:18:45;18.30;;;12.55;;
27612;SDS011;15036;48.094;-1.690;2022-12-07T11:21:44;18.75;;;12.30;;
27612;SDS011;15036;48.094;-1.690;2022-12-07T11:24:31;18.77;;;12.20;;
27612;SDS011;15036;48.094;-1.690;2022-12-07T11:27:17;19.58;;;12.13;;
27612;SDS011;15036;48.094;-1.690;2022-12-07T11:37:43;19.38;;;13.05;;
27612;SDS011;15036;48.094;-1.690;2022-12-07T11:42:46;18.10;;;13.32;;
27612;SDS011;15036;48.094;-1.690;2022-12-07T11:45:23;19.60;;;13.48;;
27612;SDS011;15036;48.094;-1.690;2022-12-07T11:48:04;24.42;;;16.05;;
27612;SDS011;15036;48.094;-1.690;2022-12-07T11:50:43;23.20;;;16.17;;
27612;SDS011;15036;48.094;-1.690;2022-12-07T11:53:20;26.02;;;16.67;;
27612;SDS011;15036;48.094;-1.690;2022-12-07T11:55:50;29.20;;;18.40;;
27612;SDS011;15036;48.094;-1.690;2022-12-07T12:00:55;32.05;;;20.17;;
27612;SDS011;15036;48.094;-1.690;2022-12-07T12:03:52;31.00;;;20.40;;
27612;SDS011;15036;48.094;-1.690;2022-12-07T12:06:21;34.28;;;20.95;;
27612;SDS011;15036;48.094;-1.690;2022-12-07T12:08:55;36.28;;;21.02;;
27612;SDS011;15036;48.094;-1.690;2022-12-07T12:22:41;25.52;;;16.00;;
27612;SDS011;15036;48.094;-1.690;2022-12-07T12:25:34;23.80;;;15.30;;
27612;SDS011;15036;48.094;-1.690;2022-12-07T12:28:00;25.33;;;16.20;;
27612;SDS011;15036;48.094;-1.690;2022-12-07T12:30:30;25.67;;;15.85;;
27612;SDS011;15036;48.094;-1.690;2022-12-07T12:33:02;29.45;;;16.83;;
27612;SDS011;15036;48.094;-1.690;2022-12-07T12:35:32;26.50;;;16.45;;
27612;SDS011;15036;48.094;-1.690;2022-12-07T12:40:48;31.83;;;18.10;;
27612;SDS011;15036;48.094;-1.690;2022-12-07T12:51:41;30.73;;;19.13;;
27612;SDS011;15036;48.094;-1.690;2022-12-07T12:59:24;27.70;;;17.83;;
27612;SDS011;15036;48.094;-1.690;2022-12-07T13:02:06;28.85;;;18.00;;
27612;SDS011;15036;48.094;-1.690;2022-12-07T13:28:40;22.73;;;15.47;;
27612;SDS011;15036;48.094;-1.690;2022-12-07T13:33:41;25.55;;;16.65;;
27612;SDS011;15036;48.094;-1.690;2022-12-07T13:36:12;25.70;;;16.10;;
27612;SDS011;15036;48.094;-1.690;2022-12-07T13:38:53;21.80;;;15.18;;
27612;SDS011;15036;48.094;-1.690;2022-12-07T13:41:21;22.35;;;15.57;;
27612;SDS011;15036;48.094;-1.690;2022-12-07T13:43:52;20.52;;;15.23;;
27612;SDS011;15036;48.094;-1.690;2022-12-07T13:46:31;23.75;;;17.52;;
27612;SDS011;15036;48.094;-1.690;2022-12-07T13:49:15;22.13;;;16.00;;
27612;SDS011;15036;48.094;-1.690;2022-12-07T13:51:43;22.77;;;16.00;;
27612;SDS011;15036;48.094;-1.690;2022-12-07T13:54:11;23.33;;;16.15;;
27612;SDS011;15036;48.094;-1.690;2022-12-07T13:56:38;15.35;;;11.38;;
27612;SDS011;15036;48.094;-1.690;2022-12-07T13:59:12;22.98;;;15.80;;
27612;SDS011;15036;48.094;-1.690;2022-12-07T14:01:41;21.55;;;14.50;;
27612;SDS011;15036;48.094;-1.690;2022-12-07T14:06:55;23.90;;;13.82;;
27612;SDS011;15036;48.094;-1.690;2022-12-07T14:11:48;16.10;;;12.50;;
27612;SDS011;15036;48.094;-1.690;2022-12-07T14:14:16;17.08;;;11.48;;
27612;SDS011;15036;48.094;-1.690;2022-12-07T14:16:54;17.45;;;12.07;;
27612;SDS011;15036;48.094;-1.690;2022-12-07T14:19:41;17.75;;;12.32;;
27612;SDS011;15036;48.094;-1.690;2022-12-07T14:25:22;17.58;;;12.60;;
27612;SDS011;15036;48.094;-1.690;2022-12-07T14:30:15;20.17;;;12.18;;
27612;SDS011;15036;48.094;-1.690;2022-12-07T14:32:41;16.10;;;12.43;;
27612;SDS011;15036;48.094;-1.690;2022-12-07T14:35:09;17.70;;;12.25;;
27612;SDS011;15036;48.094;-1.690;2022-12-07T14:37:37;16.30;;;13.05;;
27612;SDS011;15036;48.094;-1.690;2022-12-07T14:40:04;19.45;;;12.40;;
27612;SDS011;15036;48.094;-1.690;2022-12-07T14:42:31;17.67;;;12.75;;
27612;SDS011;15036;48.094;-1.690;2022-12-07T14:44:58;19.48;;;12.35;;
27612;SDS011;15036;48.094;-1.690;2022-12-07T14:47:24;17.17;;;12.73;;
27612;SDS011;15036;48.094;-1.690;2022-12-07T14:49:51;16.10;;;12.15;;
27612;SDS011;15036;48.094;-1.690;2022-12-07T14:52:18;18.13;;;13.02;;
27612;SDS011;15036;48.094;-1.690;2022-12-07T14:54:46;19.58;;;13.68;;
27612;SDS011;15036;48.094;-1.690;2022-12-07T14:57:12;18.50;;;13.82;;
27612;SDS011;15036;48.094;-1.690;2022-12-07T14:59:38;18.50;;;13.77;;
27612;SDS011;15036;48.094;-1.690;2022-12-07T15:02:04;20.00;;;13.82;;
27612;SDS011;15036;48.094;-1.690;2022-12-07T15:04:30;20.00;;;13.73;;
27612;SDS011;15036;48.094;-1.690;2022-12-07T15:06:58;19.58;;;14.15;;
27612;SDS011;15036;48.094;-1.690;2022-12-07T15:09:25;15.98;;;10.23;;
27612;SDS011;15036;48.094;-1.690;2022-12-07T15:11:51;18.58;;;14.10;;
27612;SDS011;15036;48.094;-1.690;2022-12-07T15:14:16;20.77;;;15.65;;
27612;SDS011;15036;48.094;-1.690;2022-12-07T15:16:42;19.50;;;13.23;;
27612;SDS011;15036;48.094;-1.690;2022-12-07T15:19:29;21.60;;;14.18;;
27612;SDS011;15036;48.094;-1.690;2022-12-07T15:21:53;18.92;;;14.07;;
27612;SDS011;15036;48.094;-1.690;2022-12-07T15:24:19;19.98;;;14.10;;
27612;SDS011;15036;48.094;-1.690;2022-12-07T15:26:45;21.17;;;14.07;;
27612;SDS011;15036;48.094;-1.690;2022-12-07T15:29:10;20.00;;;13.40;;
27612;SDS011;15036;48.094;-1.690;2022-12-07T15:31:36;18.55;;;14.40;;
27612;SDS011;15036;48.094;-1.690;2022-12-07T15:34:02;20.23;;;14.52;;
27612;SDS011;15036;48.094;-1.690;2022-12-07T15:36:30;18.23;;;13.75;;
27612;SDS011;15036;48.094;-1.690;2022-12-07T15:38:57;18.17;;;14.13;;
27612;SDS011;15036;48.094;-1.690;2022-12-07T15:41:23;20.20;;;14.10;;
27612;SDS011;15036;48.094;-1.690;2022-12-07T15:43:49;24.13;;;15.65;;
27612;SDS011;15036;48.094;-1.690;2022-12-07T15:46:34;21.92;;;14.63;;
27612;SDS011;15036;48.094;-1.690;2022-12-07T15:49:02;24.15;;;16.38;;
27612;SDS011;15036;48.094;-1.690;2022-12-07T15:51:28;22.80;;;15.82;;
27612;SDS011;15036;48.094;-1.690;2022-12-07T15:53:54;20.38;;;14.32;;
27612;SDS011;15036;48.094;-1.690;2022-12-07T15:56:19;20.48;;;14.98;;
27612;SDS011;15036;48.094;-1.690;2022-12-07T15:58:45;22.52;;;14.52;;
27612;SDS011;15036;48.094;-1.690;2022-12-07T16:01:11;23.00;;;14.82;;
27612;SDS011;15036;48.094;-1.690;2022-12-07T16:03:38;22.73;;;14.50;;
27612;SDS011;15036;48.094;-1.690;2022-12-07T16:06:03;20.75;;;14.88;;
27612;SDS011;15036;48.094;-1.690;2022-12-07T16:08:29;23.80;;;15.75;;
27612;SDS011;15036;48.094;-1.690;2022-12-07T16:10:54;25.48;;;15.32;;
27612;SDS011;15036;48.094;-1.690;2022-12-07T16:13:20;20.98;;;15.80;;
27612;SDS011;15036;48.094;-1.690;2022-12-07T16:15:46;26.73;;;16.05;;
27612;SDS011;15036;48.094;-1.690;2022-12-07T16:18:12;24.60;;;15.90;;
27612;SDS011;15036;48.094;-1.690;2022-12-07T16:20:37;24.52;;;16.25;;
27612;SDS011;15036;48.094;-1.690;2022-12-07T16:23:03;25.27;;;16.58;;
27612;SDS011;15036;48.094;-1.690;2022-12-07T16:25:28;29.95;;;19.08;;
27612;SDS011;15036;48.094;-1.690;2022-12-07T16:27:54;31.98;;;19.60;;
27612;SDS011;15036;48.094;-1.690;2022-12-07T16:30:20;29.42;;;19.85;;
27612;SDS011;15036;48.094;-1.690;2022-12-07T16:32:46;30.95;;;19.67;;
27612;SDS011;15036;48.094;-1.690;2022-12-07T16:35:13;31.95;;;20.13;;